Hlavní strana
METAR-TAF:

METAR-TAF

Letiště :

Effingham County Memorial Airport

Effingham, Illinois, Spojené státy americké

zeměpisná šířka: 39-04-14N, zeměpisná délka: 088-32-00W, výška: 179 m

Aktuální stav počasí

Zpráva byla vytvořena před 29 minutami, v 00:55 UTC
Východní vítr 3 kt
Teplota 1°C
Vlhkost vzduchu 55%
Tlak 1026 hPa
Viditelnost: 16.1 km
Jasno

METAR: K1H2 080055Z AUTO 10003KT 10SM CLR 01/M07 A3029 RMK AO2 T00051066

Čas: 19:24 (01:24 UTC)


TAF: chybějící

Stav a předpovědi počasí z více než 4 000 letišť (zprávy METAR a TAF).

Červené a žluté tečky na mapě představují dostupné meteorologické stanice.

Když kurzor umístíte na tečku, zobrazí se název stanice.

Pak kliknutím zobrazíte stav a předpověď počasí.

Chcete-li změnit mapu, kliknutím na zelené tlačítko se znaménkem +mapu přiblížíte, kliknutím na zelené tlačítko se znaménkem – mapu oddálíte a kliknutím na zelené šipky přejdete na sousední mapy.


METAR-TAF: